sensor_id;sensor_type;location;lat;lon;timestamp;P1;durP1;ratioP1;P2;durP2;ratioP2
22480;SDS011;11407;56.964;-2.212;2023-02-08T00:02:30;2.63;;;1.33;;
22480;SDS011;11407;56.964;-2.212;2023-02-08T00:05:02;4.40;;;1.13;;
22480;SDS011;11407;56.964;-2.212;2023-02-08T00:07:34;2.83;;;0.83;;
22480;SDS011;11407;56.964;-2.212;2023-02-08T00:10:06;4.97;;;1.20;;
22480;SDS011;11407;56.964;-2.212;2023-02-08T00:12:38;1.23;;;0.90;;
22480;SDS011;11407;56.964;-2.212;2023-02-08T00:15:10;3.77;;;1.63;;
22480;SDS011;11407;56.964;-2.212;2023-02-08T00:17:42;3.83;;;1.60;;
22480;SDS011;11407;56.964;-2.212;2023-02-08T00:20:14;4.83;;;1.30;;
22480;SDS011;11407;56.964;-2.212;2023-02-08T00:22:46;3.33;;;1.00;;
22480;SDS011;11407;56.964;-2.212;2023-02-08T00:25:18;4.00;;;1.33;;
22480;SDS011;11407;56.964;-2.212;2023-02-08T00:27:50;2.27;;;1.47;;
22480;SDS011;11407;56.964;-2.212;2023-02-08T00:30:22;3.97;;;0.90;;
22480;SDS011;11407;56.964;-2.212;2023-02-08T00:32:54;2.93;;;1.00;;
22480;SDS011;11407;56.964;-2.212;2023-02-08T00:35:27;4.77;;;1.20;;
22480;SDS011;11407;56.964;-2.212;2023-02-08T00:38:00;3.53;;;1.40;;
22480;SDS011;11407;56.964;-2.212;2023-02-08T00:40:32;5.77;;;1.40;;
22480;SDS011;11407;56.964;-2.212;2023-02-08T00:43:04;2.03;;;1.00;;
22480;SDS011;11407;56.964;-2.212;2023-02-08T00:45:36;2.50;;;1.07;;
22480;SDS011;11407;56.964;-2.212;2023-02-08T00:48:08;2.53;;;0.80;;
22480;SDS011;11407;56.964;-2.212;2023-02-08T00:50:40;3.37;;;1.23;;
22480;SDS011;11407;56.964;-2.212;2023-02-08T00:53:42;2.90;;;1.33;;
22480;SDS011;11407;56.964;-2.212;2023-02-08T00:56:15;2.97;;;1.37;;
22480;SDS011;11407;56.964;-2.212;2023-02-08T00:58:47;4.97;;;1.13;;
22480;SDS011;11407;56.964;-2.212;2023-02-08T01:01:19;3.40;;;1.10;;
22480;SDS011;11407;56.964;-2.212;2023-02-08T01:03:51;6.13;;;1.20;;
22480;SDS011;11407;56.964;-2.212;2023-02-08T01:06:23;1.43;;;0.93;;
22480;SDS011;11407;56.964;-2.212;2023-02-08T01:08:55;3.53;;;1.27;;
22480;SDS011;11407;56.964;-2.212;2023-02-08T01:11:27;1.60;;;1.20;;
22480;SDS011;11407;56.964;-2.212;2023-02-08T01:13:59;3.23;;;1.50;;
22480;SDS011;11407;56.964;-2.212;2023-02-08T01:16:32;3.00;;;1.50;;
22480;SDS011;11407;56.964;-2.212;2023-02-08T01:19:04;3.67;;;1.23;;
22480;SDS011;11407;56.964;-2.212;2023-02-08T01:21:38;2.43;;;1.30;;
22480;SDS011;11407;56.964;-2.212;2023-02-08T01:24:13;2.93;;;1.40;;
22480;SDS011;11407;56.964;-2.212;2023-02-08T01:26:45;3.57;;;1.37;;
22480;SDS011;11407;56.964;-2.212;2023-02-08T01:29:17;5.33;;;1.30;;
22480;SDS011;11407;56.964;-2.212;2023-02-08T01:31:50;2.37;;;1.00;;
22480;SDS011;11407;56.964;-2.212;2023-02-08T01:34:21;3.13;;;1.43;;
22480;SDS011;11407;56.964;-2.212;2023-02-08T01:36:53;3.07;;;1.60;;
22480;SDS011;11407;56.964;-2.212;2023-02-08T01:39:25;3.67;;;1.30;;
22480;SDS011;11407;56.964;-2.212;2023-02-08T01:41:57;5.93;;;1.60;;
22480;SDS011;11407;56.964;-2.212;2023-02-08T01:47:39;4.50;;;1.30;;
22480;SDS011;11407;56.964;-2.212;2023-02-08T01:50:13;2.97;;;1.57;;
22480;SDS011;11407;56.964;-2.212;2023-02-08T01:52:47;4.13;;;1.50;;
22480;SDS011;11407;56.964;-2.212;2023-02-08T01:55:22;2.37;;;1.40;;
22480;SDS011;11407;56.964;-2.212;2023-02-08T01:57:58;3.77;;;1.40;;
22480;SDS011;11407;56.964;-2.212;2023-02-08T02:00:34;1.77;;;1.50;;
22480;SDS011;11407;56.964;-2.212;2023-02-08T02:03:06;4.40;;;1.40;;
22480;SDS011;11407;56.964;-2.212;2023-02-08T02:05:42;4.10;;;1.70;;
22480;SDS011;11407;56.964;-2.212;2023-02-08T02:08:25;2.97;;;1.30;;
22480;SDS011;11407;56.964;-2.212;2023-02-08T02:10:57;2.67;;;1.50;;
22480;SDS011;11407;56.964;-2.212;2023-02-08T02:13:29;3.30;;;1.53;;
22480;SDS011;11407;56.964;-2.212;2023-02-08T02:16:02;3.53;;;1.93;;
22480;SDS011;11407;56.964;-2.212;2023-02-08T02:18:34;4.73;;;2.10;;
22480;SDS011;11407;56.964;-2.212;2023-02-08T02:34:58;6.57;;;4.03;;
22480;SDS011;11407;56.964;-2.212;2023-02-08T02:40:14;7.60;;;4.13;;
22480;SDS011;11407;56.964;-2.212;2023-02-08T02:46:18;11.57;;;6.40;;
22480;SDS011;11407;56.964;-2.212;2023-02-08T02:49:12;10.67;;;6.17;;
22480;SDS011;11407;56.964;-2.212;2023-02-08T02:52:00;13.63;;;7.23;;
22480;SDS011;11407;56.964;-2.212;2023-02-08T02:54:41;13.93;;;6.70;;
22480;SDS011;11407;56.964;-2.212;2023-02-08T02:57:21;12.83;;;6.20;;
22480;SDS011;11407;56.964;-2.212;2023-02-08T02:59:57;11.90;;;6.83;;
22480;SDS011;11407;56.964;-2.212;2023-02-08T03:02:34;12.37;;;7.20;;
22480;SDS011;11407;56.964;-2.212;2023-02-08T03:05:06;12.43;;;6.93;;
22480;SDS011;11407;56.964;-2.212;2023-02-08T03:25:05;11.90;;;7.17;;
22480;SDS011;11407;56.964;-2.212;2023-02-08T03:30:40;15.87;;;8.77;;
22480;SDS011;11407;56.964;-2.212;2023-02-08T03:33:19;17.03;;;9.53;;
22480;SDS011;11407;56.964;-2.212;2023-02-08T03:35:55;16.07;;;8.47;;
22480;SDS011;11407;56.964;-2.212;2023-02-08T03:38:38;16.03;;;9.43;;
22480;SDS011;11407;56.964;-2.212;2023-02-08T03:41:15;17.07;;;9.77;;
22480;SDS011;11407;56.964;-2.212;2023-02-08T03:44:02;16.57;;;9.03;;
22480;SDS011;11407;56.964;-2.212;2023-02-08T03:46:51;16.40;;;9.63;;
22480;SDS011;11407;56.964;-2.212;2023-02-08T03:49:29;19.97;;;9.83;;
22480;SDS011;11407;56.964;-2.212;2023-02-08T03:52:03;22.10;;;9.93;;
22480;SDS011;11407;56.964;-2.212;2023-02-08T03:54:38;19.37;;;11.37;;
22480;SDS011;11407;56.964;-2.212;2023-02-08T03:57:22;18.67;;;11.53;;
22480;SDS011;11407;56.964;-2.212;2023-02-08T04:00:00;20.80;;;11.87;;
22480;SDS011;11407;56.964;-2.212;2023-02-08T04:02:37;20.30;;;11.53;;
22480;SDS011;11407;56.964;-2.212;2023-02-08T04:05:23;22.97;;;11.97;;
22480;SDS011;11407;56.964;-2.212;2023-02-08T04:07:55;20.03;;;11.80;;
22480;SDS011;11407;56.964;-2.212;2023-02-08T04:10:27;19.13;;;11.43;;
22480;SDS011;11407;56.964;-2.212;2023-02-08T04:12:59;24.70;;;13.03;;
22480;SDS011;11407;56.964;-2.212;2023-02-08T04:15:31;20.77;;;11.27;;
22480;SDS011;11407;56.964;-2.212;2023-02-08T04:18:04;21.97;;;11.87;;
22480;SDS011;11407;56.964;-2.212;2023-02-08T04:20:36;19.00;;;11.47;;
22480;SDS011;11407;56.964;-2.212;2023-02-08T04:23:08;20.80;;;12.07;;
22480;SDS011;11407;56.964;-2.212;2023-02-08T04:25:40;23.57;;;11.87;;
22480;SDS011;11407;56.964;-2.212;2023-02-08T04:28:12;21.97;;;11.80;;
22480;SDS011;11407;56.964;-2.212;2023-02-08T04:30:44;20.53;;;10.93;;
22480;SDS011;11407;56.964;-2.212;2023-02-08T04:33:18;20.93;;;11.03;;
22480;SDS011;11407;56.964;-2.212;2023-02-08T04:35:50;21.53;;;11.37;;
22480;SDS011;11407;56.964;-2.212;2023-02-08T04:38:22;21.50;;;11.10;;
22480;SDS011;11407;56.964;-2.212;2023-02-08T04:40:54;20.33;;;10.33;;
22480;SDS011;11407;56.964;-2.212;2023-02-08T04:43:27;18.47;;;10.83;;
22480;SDS011;11407;56.964;-2.212;2023-02-08T04:45:59;20.20;;;11.13;;
22480;SDS011;11407;56.964;-2.212;2023-02-08T04:48:31;16.90;;;10.20;;
22480;SDS011;11407;56.964;-2.212;2023-02-08T04:51:03;16.80;;;9.37;;
22480;SDS011;11407;56.964;-2.212;2023-02-08T04:53:35;14.67;;;8.43;;
22480;SDS011;11407;56.964;-2.212;2023-02-08T04:56:07;15.03;;;8.47;;
22480;SDS011;11407;56.964;-2.212;2023-02-08T04:58:39;16.87;;;8.47;;
22480;SDS011;11407;56.964;-2.212;2023-02-08T05:01:12;12.87;;;7.03;;
22480;SDS011;11407;56.964;-2.212;2023-02-08T05:03:44;12.00;;;6.83;;
22480;SDS011;11407;56.964;-2.212;2023-02-08T05:06:16;12.77;;;6.87;;
22480;SDS011;11407;56.964;-2.212;2023-02-08T05:08:48;11.97;;;6.87;;
22480;SDS011;11407;56.964;-2.212;2023-02-08T05:11:20;12.97;;;7.53;;
22480;SDS011;11407;56.964;-2.212;2023-02-08T05:13:53;10.97;;;6.53;;
22480;SDS011;11407;56.964;-2.212;2023-02-08T05:16:25;14.67;;;8.03;;
22480;SDS011;11407;56.964;-2.212;2023-02-08T05:18:57;9.93;;;6.30;;
22480;SDS011;11407;56.964;-2.212;2023-02-08T05:21:29;10.03;;;6.33;;
22480;SDS011;11407;56.964;-2.212;2023-02-08T05:24:02;10.70;;;6.10;;
22480;SDS011;11407;56.964;-2.212;2023-02-08T05:26:36;12.33;;;6.37;;
22480;SDS011;11407;56.964;-2.212;2023-02-08T05:29:08;11.57;;;6.40;;
22480;SDS011;11407;56.964;-2.212;2023-02-08T05:31:40;11.07;;;5.93;;
22480;SDS011;11407;56.964;-2.212;2023-02-08T05:34:13;10.07;;;5.90;;
22480;SDS011;11407;56.964;-2.212;2023-02-08T05:36:44;9.10;;;5.73;;
22480;SDS011;11407;56.964;-2.212;2023-02-08T05:39:16;9.87;;;5.37;;
22480;SDS011;11407;56.964;-2.212;2023-02-08T05:41:48;9.03;;;5.63;;
22480;SDS011;11407;56.964;-2.212;2023-02-08T05:44:20;9.33;;;5.23;;
22480;SDS011;11407;56.964;-2.212;2023-02-08T05:46:52;9.00;;;4.97;;
22480;SDS011;11407;56.964;-2.212;2023-02-08T05:49:24;7.80;;;4.33;;
22480;SDS011;11407;56.964;-2.212;2023-02-08T05:51:56;7.77;;;5.10;;
22480;SDS011;11407;56.964;-2.212;2023-02-08T05:54:28;8.40;;;5.10;;
22480;SDS011;11407;56.964;-2.212;2023-02-08T05:57:00;8.33;;;4.90;;
22480;SDS011;11407;56.964;-2.212;2023-02-08T05:59:32;7.23;;;4.03;;
22480;SDS011;11407;56.964;-2.212;2023-02-08T06:02:04;6.80;;;4.47;;
22480;SDS011;11407;56.964;-2.212;2023-02-08T06:04:36;6.33;;;4.17;;
22480;SDS011;11407;56.964;-2.212;2023-02-08T06:07:10;5.77;;;3.43;;
22480;SDS011;11407;56.964;-2.212;2023-02-08T06:09:42;4.97;;;3.77;;
22480;SDS011;11407;56.964;-2.212;2023-02-08T06:12:14;5.03;;;3.80;;
22480;SDS011;11407;56.964;-2.212;2023-02-08T06:14:46;7.43;;;4.20;;
22480;SDS011;11407;56.964;-2.212;2023-02-08T06:17:17;5.27;;;3.77;;
22480;SDS011;11407;56.964;-2.212;2023-02-08T06:19:49;5.10;;;3.70;;
22480;SDS011;11407;56.964;-2.212;2023-02-08T06:22:21;5.13;;;3.77;;
22480;SDS011;11407;56.964;-2.212;2023-02-08T06:24:53;5.20;;;3.73;;
22480;SDS011;11407;56.964;-2.212;2023-02-08T06:27:26;9.13;;;3.23;;
22480;SDS011;11407;56.964;-2.212;2023-02-08T06:29:58;4.53;;;3.60;;
22480;SDS011;11407;56.964;-2.212;2023-02-08T06:32:30;4.73;;;3.10;;
22480;SDS011;11407;56.964;-2.212;2023-02-08T06:35:02;3.97;;;2.93;;
22480;SDS011;11407;56.964;-2.212;2023-02-08T06:37:34;6.73;;;3.53;;
22480;SDS011;11407;56.964;-2.212;2023-02-08T06:40:07;4.73;;;3.33;;
22480;SDS011;11407;56.964;-2.212;2023-02-08T06:42:39;4.47;;;3.40;;
22480;SDS011;11407;56.964;-2.212;2023-02-08T06:45:11;4.23;;;3.20;;
22480;SDS011;11407;56.964;-2.212;2023-02-08T06:47:44;5.67;;;3.43;;
22480;SDS011;11407;56.964;-2.212;2023-02-08T06:50:16;7.20;;;3.60;;
22480;SDS011;11407;56.964;-2.212;2023-02-08T06:52:57;5.47;;;3.50;;
22480;SDS011;11407;56.964;-2.212;2023-02-08T06:55:22;6.47;;;3.40;;
22480;SDS011;11407;56.964;-2.212;2023-02-08T06:57:47;5.07;;;3.33;;
22480;SDS011;11407;56.964;-2.212;2023-02-08T07:00:13;5.47;;;3.67;;
22480;SDS011;11407;56.964;-2.212;2023-02-08T07:02:38;5.87;;;3.43;;
22480;SDS011;11407;56.964;-2.212;2023-02-08T07:05:03;4.87;;;3.20;;
22480;SDS011;11407;56.964;-2.212;2023-02-08T07:07:29;3.37;;;3.00;;
22480;SDS011;11407;56.964;-2.212;2023-02-08T07:09:54;5.90;;;3.43;;
22480;SDS011;11407;56.964;-2.212;2023-02-08T07:12:19;6.87;;;3.87;;
22480;SDS011;11407;56.964;-2.212;2023-02-08T07:14:44;7.20;;;3.67;;
22480;SDS011;11407;56.964;-2.212;2023-02-08T07:17:10;5.47;;;3.50;;
22480;SDS011;11407;56.964;-2.212;2023-02-08T07:19:36;5.93;;;3.27;;
22480;SDS011;11407;56.964;-2.212;2023-02-08T07:22:01;8.33;;;3.90;;
22480;SDS011;11407;56.964;-2.212;2023-02-08T07:24:32;6.73;;;4.07;;
22480;SDS011;11407;56.964;-2.212;2023-02-08T07:26:58;5.93;;;4.00;;
22480;SDS011;11407;56.964;-2.212;2023-02-08T07:29:23;7.37;;;4.73;;
22480;SDS011;11407;56.964;-2.212;2023-02-08T07:31:48;6.50;;;4.13;;
22480;SDS011;11407;56.964;-2.212;2023-02-08T07:34:14;8.37;;;4.30;;
22480;SDS011;11407;56.964;-2.212;2023-02-08T07:36:45;6.37;;;4.27;;
22480;SDS011;11407;56.964;-2.212;2023-02-08T07:39:10;6.80;;;4.07;;
22480;SDS011;11407;56.964;-2.212;2023-02-08T07:41:36;8.30;;;5.13;;
22480;SDS011;11407;56.964;-2.212;2023-02-08T07:44:01;9.97;;;4.40;;
22480;SDS011;11407;56.964;-2.212;2023-02-08T07:46:26;7.43;;;4.10;;
22480;SDS011;11407;56.964;-2.212;2023-02-08T07:48:52;7.27;;;4.87;;
22480;SDS011;11407;56.964;-2.212;2023-02-08T07:51:17;9.00;;;4.93;;
22480;SDS011;11407;56.964;-2.212;2023-02-08T07:53:43;11.93;;;5.10;;
22480;SDS011;11407;56.964;-2.212;2023-02-08T07:56:08;9.40;;;4.60;;
22480;SDS011;11407;56.964;-2.212;2023-02-08T07:58:34;10.33;;;4.47;;
22480;SDS011;11407;56.964;-2.212;2023-02-08T08:00:59;8.80;;;4.60;;
22480;SDS011;11407;56.964;-2.212;2023-02-08T08:03:25;10.80;;;5.57;;
22480;SDS011;11407;56.964;-2.212;2023-02-08T08:05:50;11.70;;;4.43;;
22480;SDS011;11407;56.964;-2.212;2023-02-08T08:08:15;10.00;;;4.90;;
22480;SDS011;11407;56.964;-2.212;2023-02-08T08:10:41;10.30;;;5.23;;
22480;SDS011;11407;56.964;-2.212;2023-02-08T08:13:06;7.53;;;4.23;;
22480;SDS011;11407;56.964;-2.212;2023-02-08T08:15:31;9.40;;;4.73;;
22480;SDS011;11407;56.964;-2.212;2023-02-08T08:17:57;8.00;;;5.10;;
22480;SDS011;11407;56.964;-2.212;2023-02-08T08:20:22;8.47;;;5.17;;
22480;SDS011;11407;56.964;-2.212;2023-02-08T08:22:48;8.43;;;5.77;;
22480;SDS011;11407;56.964;-2.212;2023-02-08T08:25:13;6.93;;;4.70;;
22480;SDS011;11407;56.964;-2.212;2023-02-08T08:27:38;6.83;;;4.47;;
22480;SDS011;11407;56.964;-2.212;2023-02-08T08:30:05;6.53;;;5.23;;
22480;SDS011;11407;56.964;-2.212;2023-02-08T08:32:30;7.47;;;4.70;;
22480;SDS011;11407;56.964;-2.212;2023-02-08T08:34:55;8.27;;;4.30;;
22480;SDS011;11407;56.964;-2.212;2023-02-08T08:37:21;7.47;;;4.70;;
22480;SDS011;11407;56.964;-2.212;2023-02-08T08:39:46;8.40;;;5.20;;
22480;SDS011;11407;56.964;-2.212;2023-02-08T08:42:11;9.30;;;4.80;;
22480;SDS011;11407;56.964;-2.212;2023-02-08T08:44:36;7.97;;;4.50;;
22480;SDS011;11407;56.964;-2.212;2023-02-08T08:47:02;8.63;;;5.40;;
22480;SDS011;11407;56.964;-2.212;2023-02-08T08:49:27;9.63;;;5.00;;
22480;SDS011;11407;56.964;-2.212;2023-02-08T08:51:53;6.03;;;3.97;;
22480;SDS011;11407;56.964;-2.212;2023-02-08T08:54:18;6.90;;;4.67;;
22480;SDS011;11407;56.964;-2.212;2023-02-08T08:56:44;5.77;;;4.53;;
22480;SDS011;11407;56.964;-2.212;2023-02-08T08:59:09;8.33;;;4.30;;
22480;SDS011;11407;56.964;-2.212;2023-02-08T09:01:34;7.20;;;4.30;;
22480;SDS011;11407;56.964;-2.212;2023-02-08T09:04:00;7.67;;;4.40;;
22480;SDS011;11407;56.964;-2.212;2023-02-08T09:06:25;6.90;;;3.90;;
22480;SDS011;11407;56.964;-2.212;2023-02-08T09:08:50;7.80;;;4.27;;
22480;SDS011;11407;56.964;-2.212;2023-02-08T09:11:16;7.33;;;4.10;;
22480;SDS011;11407;56.964;-2.212;2023-02-08T09:13:41;7.43;;;4.17;;
22480;SDS011;11407;56.964;-2.212;2023-02-08T09:18:32;5.87;;;4.30;;
22480;SDS011;11407;56.964;-2.212;2023-02-08T09:20:57;8.20;;;4.60;;
22480;SDS011;11407;56.964;-2.212;2023-02-08T09:23:22;7.47;;;4.30;;
22480;SDS011;11407;56.964;-2.212;2023-02-08T09:25:48;8.13;;;4.10;;
22480;SDS011;11407;56.964;-2.212;2023-02-08T09:28:13;6.07;;;3.80;;
22480;SDS011;11407;56.964;-2.212;2023-02-08T09:30:38;6.20;;;3.90;;
22480;SDS011;11407;56.964;-2.212;2023-02-08T09:33:03;5.37;;;3.43;;
22480;SDS011;11407;56.964;-2.212;2023-02-08T09:35:29;8.63;;;4.30;;
22480;SDS011;11407;56.964;-2.212;2023-02-08T09:37:54;6.23;;;3.90;;
22480;SDS011;11407;56.964;-2.212;2023-02-08T09:40:23;7.90;;;4.07;;
22480;SDS011;11407;56.964;-2.212;2023-02-08T09:42:52;5.50;;;3.70;;
22480;SDS011;11407;56.964;-2.212;2023-02-08T09:45:35;5.57;;;3.67;;
22480;SDS011;11407;56.964;-2.212;2023-02-08T09:50:35;5.63;;;3.67;;
22480;SDS011;11407;56.964;-2.212;2023-02-08T09:55:36;6.67;;;3.77;;
22480;SDS011;11407;56.964;-2.212;2023-02-08T09:58:03;8.73;;;3.70;;
22480;SDS011;11407;56.964;-2.212;2023-02-08T10:00:34;7.27;;;3.37;;
22480;SDS011;11407;56.964;-2.212;2023-02-08T10:03:00;7.33;;;3.07;;
22480;SDS011;11407;56.964;-2.212;2023-02-08T10:05:25;3.73;;;3.10;;
22480;SDS011;11407;56.964;-2.212;2023-02-08T10:07:51;6.27;;;3.10;;
22480;SDS011;11407;56.964;-2.212;2023-02-08T10:10:21;5.37;;;2.83;;
22480;SDS011;11407;56.964;-2.212;2023-02-08T10:12:55;6.13;;;2.97;;
22480;SDS011;11407;56.964;-2.212;2023-02-08T10:18:10;4.10;;;2.30;;
22480;SDS011;11407;56.964;-2.212;2023-02-08T10:33:28;4.70;;;2.07;;
22480;SDS011;11407;56.964;-2.212;2023-02-08T10:35:56;2.87;;;2.10;;
22480;SDS011;11407;56.964;-2.212;2023-02-08T10:40:48;5.23;;;1.97;;
22480;SDS011;11407;56.964;-2.212;2023-02-08T10:45:50;5.80;;;2.03;;
22480;SDS011;11407;56.964;-2.212;2023-02-08T10:48:34;3.57;;;1.33;;
22480;SDS011;11407;56.964;-2.212;2023-02-08T10:51:02;4.90;;;1.50;;
22480;SDS011;11407;56.964;-2.212;2023-02-08T10:53:27;5.23;;;1.77;;
22480;SDS011;11407;56.964;-2.212;2023-02-08T10:55:53;5.07;;;1.70;;
22480;SDS011;11407;56.964;-2.212;2023-02-08T10:58:19;9.13;;;1.77;;
22480;SDS011;11407;56.964;-2.212;2023-02-08T11:00:45;4.93;;;1.23;;
22480;SDS011;11407;56.964;-2.212;2023-02-08T11:03:15;3.33;;;1.70;;
22480;SDS011;11407;56.964;-2.212;2023-02-08T11:05:41;3.73;;;1.57;;
22480;SDS011;11407;56.964;-2.212;2023-02-08T11:08:14;4.37;;;1.87;;
22480;SDS011;11407;56.964;-2.212;2023-02-08T11:11:02;4.30;;;1.57;;
22480;SDS011;11407;56.964;-2.212;2023-02-08T11:13:47;4.97;;;1.70;;
22480;SDS011;11407;56.964;-2.212;2023-02-08T11:16:22;6.30;;;1.60;;
22480;SDS011;11407;56.964;-2.212;2023-02-08T11:18:55;8.70;;;2.00;;
22480;SDS011;11407;56.964;-2.212;2023-02-08T11:23:48;6.13;;;1.93;;
22480;SDS011;11407;56.964;-2.212;2023-02-08T11:28:40;8.93;;;2.20;;
22480;SDS011;11407;56.964;-2.212;2023-02-08T11:31:15;8.40;;;1.90;;
22480;SDS011;11407;56.964;-2.212;2023-02-08T11:33:45;6.27;;;1.73;;
22480;SDS011;11407;56.964;-2.212;2023-02-08T11:36:21;6.20;;;2.20;;
22480;SDS011;11407;56.964;-2.212;2023-02-08T11:38:46;6.23;;;1.90;;
22480;SDS011;11407;56.964;-2.212;2023-02-08T11:41:13;7.20;;;2.00;;
22480;SDS011;11407;56.964;-2.212;2023-02-08T11:43:39;8.17;;;2.10;;
22480;SDS011;11407;56.964;-2.212;2023-02-08T11:46:05;7.90;;;2.20;;
22480;SDS011;11407;56.964;-2.212;2023-02-08T11:48:41;7.47;;;2.40;;
22480;SDS011;11407;56.964;-2.212;2023-02-08T11:51:07;12.17;;;2.43;;
22480;SDS011;11407;56.964;-2.212;2023-02-08T11:53:38;7.83;;;2.17;;
22480;SDS011;11407;56.964;-2.212;2023-02-08T11:58:32;10.73;;;2.57;;
22480;SDS011;11407;56.964;-2.212;2023-02-08T12:01:01;7.17;;;2.37;;
22480;SDS011;11407;56.964;-2.212;2023-02-08T12:03:46;7.63;;;2.40;;
22480;SDS011;11407;56.964;-2.212;2023-02-08T12:13:45;10.07;;;2.40;;
22480;SDS011;11407;56.964;-2.212;2023-02-08T12:21:30;8.47;;;2.23;;
22480;SDS011;11407;56.964;-2.212;2023-02-08T12:42:56;5.63;;;1.80;;
22480;SDS011;11407;56.964;-2.212;2023-02-08T12:45:39;8.43;;;2.57;;
22480;SDS011;11407;56.964;-2.212;2023-02-08T12:48:15;10.10;;;2.67;;
22480;SDS011;11407;56.964;-2.212;2023-02-08T12:50:48;8.77;;;2.40;;
22480;SDS011;11407;56.964;-2.212;2023-02-08T12:53:18;8.60;;;2.40;;
22480;SDS011;11407;56.964;-2.212;2023-02-08T12:55:45;11.20;;;2.70;;
22480;SDS011;11407;56.964;-2.212;2023-02-08T12:58:22;10.70;;;2.33;;
22480;SDS011;11407;56.964;-2.212;2023-02-08T13:00:48;7.87;;;2.67;;
22480;SDS011;11407;56.964;-2.212;2023-02-08T13:05:58;11.10;;;2.47;;
22480;SDS011;11407;56.964;-2.212;2023-02-08T13:08:31;11.23;;;2.70;;
22480;SDS011;11407;56.964;-2.212;2023-02-08T13:13:42;11.07;;;3.27;;
22480;SDS011;11407;56.964;-2.212;2023-02-08T13:21:37;10.87;;;3.03;;
22480;SDS011;11407;56.964;-2.212;2023-02-08T13:24:10;6.73;;;2.73;;
22480;SDS011;11407;56.964;-2.212;2023-02-08T13:26:39;10.20;;;2.27;;
22480;SDS011;11407;56.964;-2.212;2023-02-08T13:29:04;7.07;;;3.17;;
22480;SDS011;11407;56.964;-2.212;2023-02-08T13:31:30;10.43;;;3.23;;
22480;SDS011;11407;56.964;-2.212;2023-02-08T13:34:44;6.23;;;2.70;;
22480;SDS011;11407;56.964;-2.212;2023-02-08T13:37:04;5.83;;;2.03;;
22480;SDS011;11407;56.964;-2.212;2023-02-08T13:41:56;6.50;;;2.33;;
22480;SDS011;11407;56.964;-2.212;2023-02-08T13:44:27;4.33;;;2.10;;
22480;SDS011;11407;56.964;-2.212;2023-02-08T13:46:54;6.47;;;2.30;;
22480;SDS011;11407;56.964;-2.212;2023-02-08T13:52:03;4.13;;;1.97;;
22480;SDS011;11407;56.964;-2.212;2023-02-08T13:54:28;4.27;;;1.93;;
22480;SDS011;11407;56.964;-2.212;2023-02-08T13:56:53;6.60;;;2.00;;
22480;SDS011;11407;56.964;-2.212;2023-02-08T14:04:42;4.60;;;1.90;;
22480;SDS011;11407;56.964;-2.212;2023-02-08T14:12:05;3.40;;;1.50;;
22480;SDS011;11407;56.964;-2.212;2023-02-08T14:14:34;4.27;;;1.60;;
22480;SDS011;11407;56.964;-2.212;2023-02-08T14:17:17;2.47;;;1.60;;
22480;SDS011;11407;56.964;-2.212;2023-02-08T14:19:44;3.03;;;1.60;;
22480;SDS011;11407;56.964;-2.212;2023-02-08T14:24:46;3.50;;;1.57;;
22480;SDS011;11407;56.964;-2.212;2023-02-08T14:27:21;4.03;;;1.60;;
22480;SDS011;11407;56.964;-2.212;2023-02-08T14:32:23;3.30;;;1.30;;
22480;SDS011;11407;56.964;-2.212;2023-02-08T14:34:49;3.80;;;1.40;;
22480;SDS011;11407;56.964;-2.212;2023-02-08T14:39:48;5.97;;;1.77;;
22480;SDS011;11407;56.964;-2.212;2023-02-08T14:42:52;4.57;;;1.80;;
22480;SDS011;11407;56.964;-2.212;2023-02-08T14:45:02;2.83;;;1.50;;
22480;SDS011;11407;56.964;-2.212;2023-02-08T14:52:39;5.80;;;1.60;;
22480;SDS011;11407;56.964;-2.212;2023-02-08T14:55:12;4.57;;;1.77;;
22480;SDS011;11407;56.964;-2.212;2023-02-08T14:57:39;3.17;;;1.27;;
22480;SDS011;11407;56.964;-2.212;2023-02-08T15:00:06;6.60;;;1.63;;
22480;SDS011;11407;56.964;-2.212;2023-02-08T15:02:32;3.70;;;1.50;;
22480;SDS011;11407;56.964;-2.212;2023-02-08T15:04:57;4.40;;;1.63;;
22480;SDS011;11407;56.964;-2.212;2023-02-08T15:07:37;4.73;;;2.00;;
22480;SDS011;11407;56.964;-2.212;2023-02-08T15:10:10;5.33;;;1.50;;
22480;SDS011;11407;56.964;-2.212;2023-02-08T15:12:36;6.50;;;1.57;;
22480;SDS011;11407;56.964;-2.212;2023-02-08T15:15:03;2.60;;;1.47;;
22480;SDS011;11407;56.964;-2.212;2023-02-08T15:17:33;3.33;;;1.43;;
22480;SDS011;11407;56.964;-2.212;2023-02-08T15:19:59;3.17;;;1.60;;
22480;SDS011;11407;56.964;-2.212;2023-02-08T15:24:51;7.80;;;1.90;;
22480;SDS011;11407;56.964;-2.212;2023-02-08T15:27:21;3.40;;;1.60;;
22480;SDS011;11407;56.964;-2.212;2023-02-08T15:29:47;4.73;;;2.13;;
22480;SDS011;11407;56.964;-2.212;2023-02-08T15:32:13;3.93;;;1.93;;
22480;SDS011;11407;56.964;-2.212;2023-02-08T15:34:41;3.40;;;1.63;;
22480;SDS011;11407;56.964;-2.212;2023-02-08T15:37:11;4.53;;;1.50;;
22480;SDS011;11407;56.964;-2.212;2023-02-08T15:39:37;4.03;;;1.63;;
22480;SDS011;11407;56.964;-2.212;2023-02-08T15:42:04;4.07;;;1.63;;
22480;SDS011;11407;56.964;-2.212;2023-02-08T15:44:30;5.63;;;1.60;;
22480;SDS011;11407;56.964;-2.212;2023-02-08T15:46:57;5.00;;;1.77;;
22480;SDS011;11407;56.964;-2.212;2023-02-08T15:49:28;6.70;;;2.10;;
22480;SDS011;11407;56.964;-2.212;2023-02-08T15:51:54;5.53;;;2.00;;
22480;SDS011;11407;56.964;-2.212;2023-02-08T15:54:21;4.93;;;1.70;;
22480;SDS011;11407;56.964;-2.212;2023-02-08T15:57:00;5.07;;;1.73;;
22480;SDS011;11407;56.964;-2.212;2023-02-08T15:59:27;3.77;;;1.63;;
22480;SDS011;11407;56.964;-2.212;2023-02-08T16:01:53;3.30;;;1.73;;
22480;SDS011;11407;56.964;-2.212;2023-02-08T16:04:19;4.57;;;1.50;;
22480;SDS011;11407;56.964;-2.212;2023-02-08T16:06:47;4.40;;;1.50;;
22480;SDS011;11407;56.964;-2.212;2023-02-08T16:09:15;4.10;;;1.43;;
22480;SDS011;11407;56.964;-2.212;2023-02-08T16:11:41;6.37;;;1.50;;
22480;SDS011;11407;56.964;-2.212;2023-02-08T16:14:12;4.17;;;1.50;;
22480;SDS011;11407;56.964;-2.212;2023-02-08T16:16:40;5.40;;;1.70;;
22480;SDS011;11407;56.964;-2.212;2023-02-08T16:19:18;5.03;;;1.50;;
22480;SDS011;11407;56.964;-2.212;2023-02-08T16:21:44;2.80;;;1.20;;
22480;SDS011;11407;56.964;-2.212;2023-02-08T16:31:43;5.77;;;1.40;;
22480;SDS011;11407;56.964;-2.212;2023-02-08T16:34:14;7.27;;;1.93;;
22480;SDS011;11407;56.964;-2.212;2023-02-08T16:36:40;7.03;;;1.57;;
22480;SDS011;11407;56.964;-2.212;2023-02-08T16:46:50;7.47;;;1.43;;
22480;SDS011;11407;56.964;-2.212;2023-02-08T16:49:15;4.30;;;1.63;;
22480;SDS011;11407;56.964;-2.212;2023-02-08T16:51:40;6.23;;;1.70;;
22480;SDS011;11407;56.964;-2.212;2023-02-08T16:54:09;6.77;;;1.70;;
22480;SDS011;11407;56.964;-2.212;2023-02-08T16:56:36;3.07;;;1.40;;
22480;SDS011;11407;56.964;-2.212;2023-02-08T16:59:02;5.00;;;1.80;;
22480;SDS011;11407;56.964;-2.212;2023-02-08T17:01:27;4.63;;;1.50;;
22480;SDS011;11407;56.964;-2.212;2023-02-08T17:03:53;5.33;;;1.80;;
22480;SDS011;11407;56.964;-2.212;2023-02-08T17:06:28;7.57;;;1.87;;
22480;SDS011;11407;56.964;-2.212;2023-02-08T17:08:54;5.47;;;1.60;;
22480;SDS011;11407;56.964;-2.212;2023-02-08T17:11:19;6.10;;;1.87;;
22480;SDS011;11407;56.964;-2.212;2023-02-08T17:13:44;4.37;;;1.60;;
22480;SDS011;11407;56.964;-2.212;2023-02-08T17:16:23;6.47;;;1.80;;
22480;SDS011;11407;56.964;-2.212;2023-02-08T17:18:49;4.63;;;1.80;;
22480;SDS011;11407;56.964;-2.212;2023-02-08T17:21:14;4.60;;;2.53;;
22480;SDS011;11407;56.964;-2.212;2023-02-08T17:23:40;7.17;;;1.90;;
22480;SDS011;11407;56.964;-2.212;2023-02-08T17:26:08;7.23;;;2.37;;
22480;SDS011;11407;56.964;-2.212;2023-02-08T17:28:36;10.40;;;2.00;;
22480;SDS011;11407;56.964;-2.212;2023-02-08T17:31:02;4.07;;;1.83;;
22480;SDS011;11407;56.964;-2.212;2023-02-08T17:33:28;4.30;;;1.60;;
22480;SDS011;11407;56.964;-2.212;2023-02-08T17:35:53;3.17;;;1.53;;
22480;SDS011;11407;56.964;-2.212;2023-02-08T17:38:19;4.77;;;1.63;;